createdAt,value
2017-06-16T00:01:24.425Z,52.90
2017-06-16T00:03:50.723Z,51.70
2017-06-16T00:06:16.972Z,51.60
2017-06-16T00:08:43.175Z,51.40
2017-06-16T00:11:09.386Z,50.10
2017-06-16T00:13:36.331Z,51.00
2017-06-16T00:16:02.506Z,49.70
2017-06-16T00:18:28.669Z,50.80
2017-06-16T00:20:54.884Z,48.90
2017-06-16T00:23:21.783Z,49.80
2017-06-16T00:25:47.977Z,48.70
2017-06-16T00:28:14.321Z,50.10
2017-06-16T00:30:40.509Z,49.50
2017-06-16T00:33:07.607Z,48.70
2017-06-16T00:35:33.759Z,48.70
2017-06-16T00:37:59.971Z,49.00
2017-06-16T00:40:26.215Z,48.90
2017-06-16T00:42:52.391Z,48.20
2017-06-16T00:45:18.605Z,49.70
2017-06-16T00:47:45.579Z,48.60
2017-06-16T00:50:11.758Z,49.70
2017-06-16T00:52:38.050Z,47.90
2017-06-16T00:55:04.471Z,47.60
2017-06-16T00:57:30.705Z,50.50
2017-06-16T00:59:56.905Z,48.90
2017-06-16T01:02:23.806Z,49.30
2017-06-16T01:04:49.974Z,49.80
2017-06-16T01:07:17.040Z,51.10
2017-06-16T01:09:43.778Z,49.20
2017-06-16T01:12:11.464Z,48.90
2017-06-16T01:14:39.118Z,50.20
2017-06-16T01:17:05.460Z,49.50
2017-06-16T01:19:31.752Z,51.00
2017-06-16T01:21:58.780Z,51.30
2017-06-16T01:24:24.937Z,50.70
2017-06-16T01:26:51.867Z,51.50
2017-06-16T01:29:18.798Z,52.30
2017-06-16T01:31:45.156Z,50.30
2017-06-16T01:34:12.100Z,50.50
2017-06-16T01:36:39.026Z,51.40
2017-06-16T01:39:05.220Z,51.40
2017-06-16T01:41:31.536Z,50.30
2017-06-16T01:43:57.688Z,50.50
2017-06-16T01:46:23.902Z,50.10
2017-06-16T01:48:50.156Z,51.40
2017-06-16T01:51:16.373Z,51.30
2017-06-16T01:53:42.573Z,51.40
2017-06-16T01:56:08.817Z,51.40
2017-06-16T01:58:35.019Z,52.30
2017-06-16T02:01:01.254Z,51.50
2017-06-16T02:03:27.486Z,50.90
2017-06-16T02:05:53.675Z,50.90
2017-06-16T02:08:20.861Z,51.00
2017-06-16T02:10:47.006Z,51.00
2017-06-16T02:13:13.690Z,51.40
2017-06-16T02:15:40.926Z,52.00
2017-06-16T02:18:07.487Z,50.80
2017-06-16T02:20:34.389Z,51.90
2017-06-16T02:23:00.584Z,51.30
2017-06-16T02:25:26.760Z,51.70
2017-06-16T02:27:52.979Z,50.70
2017-06-16T02:30:19.198Z,51.30
2017-06-16T02:32:45.494Z,52.10
2017-06-16T02:35:11.658Z,52.40
2017-06-16T02:37:37.822Z,51.90
2017-06-16T02:40:03.998Z,52.40
2017-06-16T02:42:30.178Z,51.20
2017-06-16T02:44:56.344Z,52.20
2017-06-16T02:47:23.275Z,51.50
2017-06-16T02:49:50.211Z,52.30
2017-06-16T02:52:16.508Z,51.90
2017-06-16T02:54:42.733Z,52.00
2017-06-16T02:57:09.029Z,52.30
2017-06-16T02:59:35.334Z,52.40
2017-06-16T03:02:02.343Z,52.90
2017-06-16T03:04:28.540Z,52.80
2017-06-16T03:06:54.719Z,53.60
2017-06-16T03:09:23.771Z,52.90
2017-06-16T03:11:49.955Z,53.60
2017-06-16T03:14:16.694Z,53.40
2017-06-16T03:16:43.586Z,54.10
2017-06-16T03:19:09.789Z,54.10
2017-06-16T03:21:41.979Z,53.90
2017-06-16T03:24:08.162Z,54.00
2017-06-16T03:26:34.324Z,54.40
2017-06-16T03:29:00.589Z,54.00
2017-06-16T03:31:26.767Z,54.10
2017-06-16T03:33:53.784Z,54.60
2017-06-16T03:36:19.958Z,53.70
2017-06-16T03:38:46.095Z,54.10
2017-06-16T03:41:12.287Z,54.70
2017-06-16T03:43:39.199Z,54.70
2017-06-16T03:46:05.367Z,53.90
2017-06-16T03:48:32.298Z,54.20
2017-06-16T03:50:59.253Z,54.90
2017-06-16T03:53:26.148Z,53.50
2017-06-16T03:55:52.314Z,53.50
2017-06-16T03:58:18.498Z,53.50
2017-06-16T04:00:44.678Z,54.40
2017-06-16T04:03:11.623Z,54.60
2017-06-16T04:05:38.554Z,54.50
2017-06-16T04:08:04.703Z,54.10
2017-06-16T04:10:31.646Z,55.60
2017-06-16T04:12:58.547Z,55.10
2017-06-16T04:15:24.765Z,55.10
2017-06-16T04:17:50.939Z,54.40
2017-06-16T04:20:17.104Z,55.50
2017-06-16T04:22:43.367Z,55.10
2017-06-16T04:25:09.529Z,55.30
2017-06-16T04:27:36.431Z,56.00
2017-06-16T04:30:02.650Z,56.00
2017-06-16T04:32:28.809Z,55.20
2017-06-16T04:34:55.018Z,54.40
2017-06-16T04:37:21.186Z,54.70
2017-06-16T04:39:48.118Z,56.40
2017-06-16T04:42:14.356Z,56.40
2017-06-16T04:44:41.278Z,55.20
2017-06-16T04:47:07.494Z,55.30
2017-06-16T04:49:33.647Z,54.50
2017-06-16T04:51:59.815Z,54.40
2017-06-16T04:54:26.030Z,55.20
2017-06-16T04:56:52.938Z,55.20
2017-06-16T04:59:34.060Z,55.30
2017-06-16T05:02:00.283Z,56.30
2017-06-16T05:04:27.265Z,56.30
2017-06-16T05:06:53.442Z,56.30
2017-06-16T05:09:20.320Z,55.00
2017-06-16T05:11:46.526Z,54.90
2017-06-16T05:14:13.464Z,55.40
2017-06-16T05:16:39.663Z,55.40
2017-06-16T05:19:05.830Z,56.70
2017-06-16T05:21:32.745Z,55.10
2017-06-16T05:23:58.941Z,55.10
2017-06-16T05:26:25.075Z,54.80
2017-06-16T05:28:51.291Z,54.30
2017-06-16T05:31:17.466Z,55.00
2017-06-16T05:33:43.653Z,54.60
2017-06-16T05:36:09.852Z,55.70
2017-06-16T05:38:36.006Z,54.50
2017-06-16T05:41:02.243Z,53.60
2017-06-16T05:43:28.408Z,53.20
2017-06-16T05:46:09.496Z,53.90
2017-06-16T05:48:36.419Z,53.70
2017-06-16T05:51:02.606Z,53.60
2017-06-16T05:53:28.787Z,52.10
2017-06-16T05:55:55.384Z,51.90
2017-06-16T05:58:21.518Z,50.70
2017-06-16T06:00:47.708Z,51.60
2017-06-16T06:03:13.854Z,52.40
2017-06-16T06:05:40.028Z,53.80
2017-06-16T06:08:06.180Z,54.80
2017-06-16T06:10:32.339Z,55.10
2017-06-16T06:12:58.514Z,53.80
2017-06-16T06:15:25.487Z,51.60
2017-06-16T06:17:51.713Z,54.20
2017-06-16T06:20:17.903Z,53.90
2017-06-16T06:22:44.089Z,56.00
2017-06-16T06:25:10.301Z,52.30
2017-06-16T06:27:36.474Z,50.90
2017-06-16T06:30:02.670Z,51.70
2017-06-16T06:32:28.855Z,46.50
2017-06-16T06:34:55.059Z,48.80
2017-06-16T06:37:21.254Z,47.40
2017-06-16T06:39:47.442Z,49.20
2017-06-16T06:42:13.628Z,49.70
2017-06-16T06:44:39.815Z,46.30
2017-06-16T06:47:06.747Z,49.50
2017-06-16T06:49:33.654Z,46.20
2017-06-16T06:51:59.786Z,45.70
2017-06-16T06:54:25.998Z,46.70
2017-06-16T06:56:52.244Z,44.10
2017-06-16T06:59:18.398Z,43.40
2017-06-16T07:01:44.554Z,42.90
2017-06-16T07:04:10.748Z,42.30
2017-06-16T07:06:36.931Z,43.80
2017-06-16T07:09:03.109Z,42.90
2017-06-16T07:11:29.332Z,43.00
2017-06-16T07:13:55.504Z,43.00
2017-06-16T07:16:21.679Z,42.20
2017-06-16T07:18:47.863Z,43.00
2017-06-16T07:21:14.066Z,41.10
2017-06-16T07:23:40.256Z,40.00
2017-06-16T07:26:06.479Z,39.70
2017-06-16T07:28:32.638Z,38.80
2017-06-16T07:30:58.813Z,38.80
2017-06-16T07:33:24.981Z,36.70
2017-06-16T07:35:51.163Z,37.70
2017-06-16T07:38:17.418Z,38.60
2017-06-16T07:40:43.611Z,37.60
2017-06-16T07:43:09.883Z,35.80
2017-06-16T07:45:36.084Z,34.50
2017-06-16T07:48:02.278Z,38.20
2017-06-16T07:50:28.892Z,34.20
2017-06-16T07:52:55.075Z,35.00
2017-06-16T07:55:21.288Z,34.40
2017-06-16T07:57:47.544Z,34.60
2017-06-16T08:00:13.711Z,33.60
2017-06-16T08:02:39.971Z,31.40
2017-06-16T08:05:06.882Z,33.90
2017-06-16T08:07:33.061Z,33.80
2017-06-16T08:09:59.288Z,31.90
2017-06-16T08:12:25.482Z,31.00
2017-06-16T08:14:52.407Z,30.60
2017-06-16T08:17:18.668Z,30.60
2017-06-16T08:19:45.598Z,34.00
2017-06-16T08:22:12.197Z,32.90
2017-06-16T08:24:38.360Z,33.40
2017-06-16T08:27:04.528Z,31.30
2017-06-16T08:29:30.723Z,33.10
2017-06-16T08:31:57.650Z,34.50
2017-06-16T08:34:23.954Z,34.20
2017-06-16T08:36:50.735Z,34.90
2017-06-16T08:39:17.435Z,31.30
2017-06-16T08:41:43.768Z,31.90
2017-06-16T08:44:11.036Z,30.70
2017-06-16T08:46:38.860Z,31.20
2017-06-16T08:49:05.115Z,31.10
2017-06-16T08:51:32.433Z,30.50
2017-06-16T08:53:59.434Z,31.00
2017-06-16T08:56:25.610Z,31.10
2017-06-16T08:58:52.569Z,30.90
2017-06-16T09:01:18.736Z,31.00
2017-06-16T09:03:59.899Z,30.90
2017-06-16T09:06:26.112Z,29.90
2017-06-16T09:08:52.282Z,30.00
2017-06-16T09:11:18.465Z,29.50
2017-06-16T09:13:44.746Z,29.30
2017-06-16T09:16:10.958Z,29.80
2017-06-16T09:18:37.187Z,29.60
2017-06-16T09:21:03.383Z,30.30
2017-06-16T09:23:29.538Z,29.80
2017-06-16T09:25:55.752Z,30.20
2017-06-16T09:28:21.916Z,30.70
2017-06-16T09:30:48.089Z,31.10
2017-06-16T09:33:14.291Z,33.90
2017-06-16T09:35:41.210Z,34.30
2017-06-16T09:38:07.397Z,34.30
2017-06-16T09:40:33.595Z,32.90
2017-06-16T09:43:00.762Z,34.70
2017-06-16T09:45:27.036Z,32.40
2017-06-16T09:47:53.773Z,32.70
2017-06-16T09:50:21.327Z,32.20
2017-06-16T09:52:49.616Z,32.30
2017-06-16T09:55:15.794Z,31.40
2017-06-16T09:57:42.029Z,32.90
2017-06-16T10:00:08.506Z,31.00
2017-06-16T10:02:34.699Z,31.00
2017-06-16T10:05:00.883Z,31.50
2017-06-16T10:07:27.474Z,32.30
2017-06-16T10:09:53.671Z,31.70
2017-06-16T10:12:21.104Z,32.10
2017-06-16T10:14:47.317Z,32.10
2017-06-16T10:17:13.929Z,31.30
2017-06-16T10:19:40.100Z,32.20
2017-06-16T10:22:06.370Z,34.40
2017-06-16T10:24:32.563Z,35.80
2017-06-16T10:26:59.077Z,36.30
2017-06-16T10:29:25.231Z,37.90
2017-06-16T10:31:51.507Z,37.70
2017-06-16T10:34:17.737Z,36.90
2017-06-16T10:36:43.936Z,36.70
2017-06-16T10:39:10.888Z,36.90
2017-06-16T10:41:37.083Z,36.90
2017-06-16T10:44:04.273Z,38.20
2017-06-16T10:46:30.531Z,38.30
2017-06-16T10:48:56.906Z,39.80
2017-06-16T10:51:24.331Z,39.20
2017-06-16T10:53:51.715Z,37.50
2017-06-16T10:56:18.310Z,38.20
2017-06-16T10:58:44.634Z,37.10
2017-06-16T11:01:11.652Z,37.10
2017-06-16T11:03:38.970Z,37.90
2017-06-16T11:06:05.259Z,38.50
2017-06-16T11:08:31.627Z,37.20
2017-06-16T11:10:58.557Z,36.40
2017-06-16T11:13:25.676Z,36.50
2017-06-16T11:15:52.000Z,37.30
2017-06-16T11:18:18.947Z,36.70
2017-06-16T11:20:45.824Z,35.50
2017-06-16T11:23:12.451Z,38.30
2017-06-16T11:25:39.206Z,38.00
2017-06-16T11:28:07.491Z,38.70
2017-06-16T11:30:34.794Z,38.80
2017-06-16T11:33:02.952Z,40.60
2017-06-16T11:35:29.398Z,40.40
2017-06-16T11:37:55.784Z,42.80
2017-06-16T11:40:22.115Z,40.50
2017-06-16T11:42:48.990Z,41.10
2017-06-16T11:45:17.111Z,40.20
2017-06-16T11:47:45.438Z,38.30
2017-06-16T11:50:11.866Z,39.60
2017-06-16T11:52:38.162Z,40.60
2017-06-16T11:55:04.698Z,41.50
2017-06-16T11:57:31.052Z,41.50
2017-06-16T11:59:57.275Z,41.30
2017-06-16T12:02:23.484Z,40.90
2017-06-16T12:04:49.677Z,41.60
2017-06-16T12:07:15.906Z,40.40
2017-06-16T12:09:42.868Z,39.30
2017-06-16T12:12:09.079Z,41.70
2017-06-16T12:14:36.091Z,42.70
2017-06-16T12:17:02.287Z,41.00
2017-06-16T12:19:29.083Z,39.00
2017-06-16T12:21:56.776Z,35.30
2017-06-16T12:24:23.177Z,37.70
2017-06-16T12:26:49.358Z,37.70
2017-06-16T12:29:15.534Z,38.50
2017-06-16T12:31:41.788Z,37.60
2017-06-16T12:34:08.000Z,38.40
2017-06-16T12:36:34.960Z,40.40
2017-06-16T12:39:16.843Z,39.40
2017-06-16T12:41:43.937Z,35.90
2017-06-16T12:44:10.118Z,40.10
2017-06-16T12:46:36.334Z,39.60
2017-06-16T12:49:02.556Z,39.10
2017-06-16T12:51:28.772Z,39.30
2017-06-16T12:53:54.944Z,36.30
2017-06-16T12:56:21.872Z,39.40
2017-06-16T12:58:48.109Z,38.20
2017-06-16T13:01:15.075Z,37.90
2017-06-16T13:03:41.991Z,38.00
2017-06-16T13:06:08.227Z,37.90
2017-06-16T13:08:34.399Z,38.30
2017-06-16T13:11:00.597Z,38.50
2017-06-16T13:13:27.581Z,40.40
2017-06-16T13:15:53.846Z,39.70
2017-06-16T13:18:20.014Z,38.30
2017-06-16T13:20:47.039Z,36.00
2017-06-16T13:23:13.999Z,36.40
2017-06-16T13:25:40.935Z,36.10
2017-06-16T13:28:07.888Z,39.50
2017-06-16T13:30:34.850Z,37.10
2017-06-16T13:33:01.042Z,38.70
2017-06-16T13:35:27.970Z,34.60
2017-06-16T13:37:54.162Z,34.10
2017-06-16T13:40:20.425Z,36.70
2017-06-16T13:42:46.616Z,39.40
2017-06-16T13:45:12.802Z,37.70
2017-06-16T13:47:39.001Z,39.50
2017-06-16T13:50:06.462Z,38.40
2017-06-16T13:52:32.723Z,38.50
2017-06-16T13:55:00.679Z,40.30
2017-06-16T13:57:26.967Z,40.50
2017-06-16T13:59:53.475Z,40.30
2017-06-16T14:02:19.670Z,41.30
2017-06-16T14:04:45.862Z,41.30
2017-06-16T14:07:13.409Z,41.60
2017-06-16T14:09:41.007Z,42.30
2017-06-16T14:12:08.023Z,41.00
2017-06-16T14:14:34.220Z,39.30
2017-06-16T14:17:02.070Z,40.90
2017-06-16T14:19:30.692Z,40.60
2017-06-16T14:21:56.909Z,40.50
2017-06-16T14:24:23.831Z,38.70
2017-06-16T14:26:50.043Z,38.60
2017-06-16T14:29:16.245Z,40.00
2017-06-16T14:31:42.396Z,41.60
2017-06-16T14:34:08.720Z,40.30
2017-06-16T14:36:43.258Z,42.20
2017-06-16T14:39:10.953Z,41.30
2017-06-16T14:41:37.881Z,41.30
2017-06-16T14:44:04.067Z,40.70
2017-06-16T14:46:30.388Z,39.90
2017-06-16T14:48:56.578Z,40.40
2017-06-16T14:51:23.637Z,40.90
2017-06-16T14:53:50.571Z,40.40
2017-06-16T14:56:17.510Z,39.80
2017-06-16T14:58:43.733Z,40.10
2017-06-16T15:01:10.103Z,40.90
2017-06-16T15:03:36.315Z,42.10
2017-06-16T15:06:03.258Z,41.70
2017-06-16T15:08:30.216Z,40.50
2017-06-16T15:10:56.436Z,40.60
2017-06-16T15:13:23.360Z,41.20
2017-06-16T15:15:50.725Z,39.90
2017-06-16T15:18:16.877Z,39.80
2017-06-16T15:20:43.074Z,41.10
2017-06-16T15:23:13.313Z,39.60
2017-06-16T15:25:44.572Z,41.20
2017-06-16T15:28:11.252Z,39.40
2017-06-16T15:30:49.459Z,40.60
2017-06-16T15:33:16.649Z,39.00
2017-06-16T15:35:42.901Z,40.00
2017-06-16T15:38:09.822Z,41.00
2017-06-16T15:40:36.010Z,40.40
2017-06-16T15:43:02.247Z,38.90
2017-06-16T15:45:28.453Z,39.70
2017-06-16T15:47:54.738Z,40.40
2017-06-16T15:50:20.934Z,40.90
2017-06-16T15:52:47.353Z,38.50
2017-06-16T15:55:13.842Z,40.30
2017-06-16T15:57:41.796Z,41.00
2017-06-16T16:00:08.069Z,40.30
2017-06-16T16:02:34.529Z,40.10
2017-06-16T16:05:01.416Z,39.90
2017-06-16T16:07:27.704Z,40.10
2017-06-16T16:09:55.072Z,40.10
2017-06-16T16:12:22.222Z,40.60
2017-06-16T16:14:50.512Z,40.60
2017-06-16T16:17:16.699Z,41.40
2017-06-16T16:19:42.943Z,40.60
2017-06-16T16:22:09.240Z,41.20
2017-06-16T16:24:36.180Z,41.30
2017-06-16T16:27:03.226Z,40.70
2017-06-16T16:29:30.197Z,42.40
2017-06-16T16:31:58.744Z,41.60
2017-06-16T16:34:26.603Z,40.70
2017-06-16T16:36:52.819Z,41.90
2017-06-16T16:39:19.499Z,41.30
2017-06-16T16:41:48.277Z,41.10
2017-06-16T16:44:14.502Z,40.00
2017-06-16T16:46:41.654Z,42.60
2017-06-16T16:49:09.226Z,42.00
2017-06-16T16:51:35.820Z,39.80
2017-06-16T16:54:02.158Z,41.50
2017-06-16T16:56:28.573Z,39.90
2017-06-16T16:58:54.849Z,40.90
2017-06-16T17:01:23.353Z,41.80
2017-06-16T17:03:51.951Z,41.40
2017-06-16T17:06:18.338Z,41.30
2017-06-16T17:08:44.566Z,40.80
2017-06-16T17:11:11.829Z,41.70
2017-06-16T17:13:40.110Z,43.00
2017-06-16T17:16:06.483Z,41.60
2017-06-16T17:18:32.879Z,41.50
2017-06-16T17:20:59.933Z,43.10
2017-06-16T17:23:26.215Z,43.00
2017-06-16T17:25:52.502Z,43.50
2017-06-16T17:28:18.930Z,43.40
2017-06-16T17:30:45.248Z,41.50
2017-06-16T17:33:11.565Z,41.50
2017-06-16T17:35:39.777Z,44.10
2017-06-16T17:38:06.084Z,43.40
2017-06-16T17:40:33.213Z,43.90
2017-06-16T17:43:00.596Z,44.00
2017-06-16T17:45:26.942Z,43.40
2017-06-16T17:47:54.104Z,43.40
2017-06-16T17:50:20.408Z,43.40
2017-06-16T17:52:47.540Z,44.70
2017-06-16T17:55:14.615Z,44.00
2017-06-16T17:57:41.608Z,44.30
2017-06-16T18:00:08.826Z,44.10
2017-06-16T18:02:36.167Z,44.20
2017-06-16T18:05:02.566Z,43.30
2017-06-16T18:07:28.881Z,43.70
2017-06-16T18:09:55.838Z,44.70
2017-06-16T18:12:23.089Z,44.40
2017-06-16T18:14:49.607Z,43.20
2017-06-16T18:17:16.178Z,43.70
2017-06-16T18:19:42.441Z,44.40
2017-06-16T18:22:08.750Z,43.90
2017-06-16T18:24:35.123Z,43.90
2017-06-16T18:27:01.461Z,44.40
2017-06-16T18:29:28.631Z,44.10
2017-06-16T18:31:54.967Z,43.90
2017-06-16T18:34:21.330Z,44.00
2017-06-16T18:36:47.702Z,44.20
2017-06-16T18:39:14.160Z,44.50
2017-06-16T18:41:40.575Z,44.40
2017-06-16T18:44:07.877Z,44.20
2017-06-16T18:46:34.213Z,44.40
2017-06-16T18:49:00.514Z,44.30
2017-06-16T18:51:26.881Z,43.80
2017-06-16T18:53:53.948Z,44.90
2017-06-16T18:56:20.857Z,44.50
2017-06-16T18:58:47.743Z,45.30
2017-06-16T19:01:14.083Z,45.00
2017-06-16T19:03:40.759Z,44.50
2017-06-16T19:06:07.055Z,45.50
2017-06-16T19:08:34.184Z,45.40
2017-06-16T19:11:01.613Z,45.20
2017-06-16T19:13:28.903Z,45.20
2017-06-16T19:15:55.127Z,46.40
2017-06-16T19:18:22.142Z,44.90
2017-06-16T19:20:48.543Z,44.90
2017-06-16T19:23:14.737Z,45.70
2017-06-16T19:25:42.349Z,45.70
2017-06-16T19:28:09.312Z,46.60
2017-06-16T19:30:35.569Z,45.50
2017-06-16T19:33:02.642Z,47.10
2017-06-16T19:35:29.770Z,46.60
2017-06-16T19:37:56.994Z,47.10
2017-06-16T19:40:23.974Z,47.60
2017-06-16T19:42:50.243Z,47.60
2017-06-16T19:45:16.475Z,46.70
2017-06-16T19:47:42.753Z,45.50
2017-06-16T19:50:10.237Z,47.00
2017-06-16T19:52:36.448Z,47.00
2017-06-16T19:55:02.690Z,46.60
2017-06-16T19:57:28.906Z,47.20
2017-06-16T19:59:55.149Z,47.20
2017-06-16T20:02:21.414Z,46.80
2017-06-16T20:04:47.656Z,46.30
2017-06-16T20:07:13.971Z,46.70
2017-06-16T20:09:40.216Z,46.10
2017-06-16T20:12:06.489Z,46.70
2017-06-16T20:14:32.685Z,46.70
2017-06-16T20:16:58.914Z,46.60
2017-06-16T20:19:25.798Z,45.90
2017-06-16T20:21:52.115Z,45.90
2017-06-16T20:24:20.135Z,46.30
2017-06-16T20:26:57.275Z,46.70
2017-06-16T20:29:36.615Z,46.10
2017-06-16T20:32:21.690Z,47.30
2017-06-16T20:34:51.814Z,47.70
2017-06-16T20:37:18.004Z,46.70
2017-06-16T20:39:44.205Z,47.20
2017-06-16T20:42:10.493Z,46.40
2017-06-16T20:44:36.692Z,47.30
2017-06-16T20:47:04.300Z,48.00
2017-06-16T20:49:30.592Z,47.60
2017-06-16T20:51:57.555Z,48.50
2017-06-16T20:54:24.782Z,47.80
2017-06-16T20:56:51.034Z,47.80
2017-06-16T20:59:17.970Z,47.50
2017-06-16T21:01:44.964Z,48.30
2017-06-16T21:04:11.142Z,48.50
2017-06-16T21:06:38.175Z,48.20
2017-06-16T21:09:04.361Z,48.20
2017-06-16T21:11:30.544Z,47.60
2017-06-16T21:13:57.496Z,48.80
2017-06-16T21:16:24.503Z,48.40
2017-06-16T21:18:50.704Z,48.30
2017-06-16T21:21:17.768Z,48.00
2017-06-16T21:23:43.997Z,47.90
2017-06-16T21:26:10.225Z,47.90
2017-06-16T21:28:36.427Z,48.60
2017-06-16T21:31:02.686Z,47.20
2017-06-16T21:33:28.912Z,48.70
2017-06-16T21:35:55.071Z,48.50
2017-06-16T21:38:21.307Z,48.60
2017-06-16T21:40:47.491Z,48.70
2017-06-16T21:43:13.683Z,48.50
2017-06-16T21:45:40.683Z,48.60
2017-06-16T21:48:06.888Z,48.50
2017-06-16T21:50:33.113Z,50.00
2017-06-16T21:52:59.361Z,48.90
2017-06-16T21:55:26.475Z,48.40
2017-06-16T21:57:52.712Z,47.90
2017-06-16T22:00:18.981Z,48.50
2017-06-16T22:02:45.195Z,48.00
2017-06-16T22:05:11.381Z,48.20
2017-06-16T22:07:38.376Z,48.90
2017-06-16T22:10:04.581Z,48.20
2017-06-16T22:12:30.773Z,48.70
2017-06-16T22:14:56.977Z,48.90
2017-06-16T22:17:23.168Z,48.80
2017-06-16T22:19:49.385Z,49.20
2017-06-16T22:22:15.616Z,49.00
2017-06-16T22:24:44.331Z,48.80
2017-06-16T22:27:10.893Z,48.30
2017-06-16T22:29:37.109Z,48.40
2017-06-16T22:32:04.319Z,48.60
2017-06-16T22:34:30.477Z,49.40
2017-06-16T22:36:56.671Z,49.10
2017-06-16T22:39:22.826Z,49.90
2017-06-16T22:41:51.767Z,48.70
2017-06-16T22:44:18.743Z,50.50
2017-06-16T22:46:44.986Z,49.80
2017-06-16T22:49:18.077Z,49.00
2017-06-16T22:51:46.035Z,50.10
2017-06-16T22:54:12.241Z,49.90
2017-06-16T22:56:39.212Z,50.50
2017-06-16T22:59:05.456Z,49.60
2017-06-16T23:01:31.708Z,48.60
2017-06-16T23:03:58.002Z,49.60
2017-06-16T23:06:39.100Z,49.80
2017-06-16T23:09:06.328Z,49.60
2017-06-16T23:11:32.509Z,49.60
2017-06-16T23:13:59.046Z,49.20
2017-06-16T23:16:26.268Z,50.20
2017-06-16T23:18:52.795Z,50.20
2017-06-16T23:21:19.276Z,49.60
2017-06-16T23:23:47.034Z,49.10
2017-06-16T23:26:14.364Z,49.80
2017-06-16T23:28:40.883Z,50.40
2017-06-16T23:31:07.037Z,49.80
2017-06-16T23:33:33.293Z,50.70
2017-06-16T23:35:59.566Z,51.00
2017-06-16T23:38:40.760Z,50.50
2017-06-16T23:41:07.376Z,49.50
2017-06-16T23:43:33.610Z,51.10
2017-06-16T23:45:59.910Z,50.60
2017-06-16T23:48:26.911Z,51.50
2017-06-16T23:50:53.165Z,50.50
2017-06-16T23:53:19.514Z,50.60
2017-06-16T23:55:46.654Z,51.70
2017-06-16T23:58:12.840Z,51.30
